createdAt,value
2018-09-05T00:01:10.977Z,9.40
2018-09-05T00:03:39.421Z,10.10
2018-09-05T00:06:07.809Z,9.30
2018-09-05T00:08:36.181Z,9.13
2018-09-05T00:11:08.702Z,8.97
2018-09-05T00:13:37.092Z,8.90
2018-09-05T00:16:05.694Z,8.70
2018-09-05T00:18:34.105Z,8.93
2018-09-05T00:21:02.536Z,8.30
2018-09-05T00:23:30.981Z,8.70
2018-09-05T00:25:59.400Z,8.33
2018-09-05T00:28:27.785Z,9.43
2018-09-05T00:30:56.217Z,8.80
2018-09-05T00:33:24.650Z,8.57
2018-09-05T00:35:53.041Z,8.23
2018-09-05T00:38:21.420Z,8.23
2018-09-05T00:40:49.883Z,8.43
2018-09-05T00:43:18.296Z,8.50
2018-09-05T00:45:46.720Z,8.97
2018-09-05T00:48:15.129Z,7.67
2018-09-05T00:50:43.565Z,8.03
2018-09-05T00:53:11.936Z,7.60
2018-09-05T00:55:40.389Z,8.10
2018-09-05T00:58:08.756Z,7.30
2018-09-05T01:00:37.281Z,7.97
2018-09-05T01:03:05.709Z,7.53
2018-09-05T01:05:34.093Z,7.20
2018-09-05T01:08:02.527Z,7.90
2018-09-05T01:10:30.981Z,7.50
2018-09-05T01:12:59.393Z,6.90
2018-09-05T01:15:27.800Z,8.10
2018-09-05T01:17:56.205Z,7.33
2018-09-05T01:20:24.592Z,6.93
2018-09-05T01:22:53.051Z,7.40
2018-09-05T01:25:21.477Z,6.83
2018-09-05T01:27:49.905Z,7.07
2018-09-05T01:30:18.308Z,6.37
2018-09-05T01:32:46.736Z,6.73
2018-09-05T01:35:15.101Z,6.30
2018-09-05T01:37:43.581Z,6.43
2018-09-05T01:40:11.952Z,6.00
2018-09-05T01:42:40.396Z,6.27
2018-09-05T01:45:08.797Z,6.70
2018-09-05T01:47:37.228Z,5.97
2018-09-05T01:50:05.625Z,5.90
2018-09-05T01:52:34.118Z,6.03
2018-09-05T01:55:02.501Z,6.40
2018-09-05T01:57:30.905Z,6.07
2018-09-05T01:59:59.281Z,5.50
2018-09-05T02:02:27.737Z,5.43
2018-09-05T02:04:56.453Z,5.20
2018-09-05T02:07:24.864Z,5.77
2018-09-05T02:09:53.516Z,6.33
2018-09-05T02:12:21.889Z,6.17
2018-09-05T02:14:50.306Z,6.10
2018-09-05T02:17:18.708Z,6.23
2018-09-05T02:19:47.120Z,5.83
2018-09-05T02:22:15.481Z,6.60
2018-09-05T02:24:43.950Z,7.10
2018-09-05T02:27:12.317Z,6.10
2018-09-05T02:29:40.753Z,6.27
2018-09-05T02:32:09.145Z,6.30
2018-09-05T02:34:37.550Z,6.63
2018-09-05T02:37:05.925Z,6.57
2018-09-05T02:39:34.340Z,6.03
2018-09-05T02:42:02.744Z,5.80
2018-09-05T02:44:31.192Z,5.97
2018-09-05T02:46:59.578Z,5.97
2018-09-05T02:49:28.078Z,5.40
2018-09-05T02:51:56.453Z,5.97
2018-09-05T02:54:24.833Z,5.93
2018-09-05T02:56:53.257Z,5.43
2018-09-05T02:59:21.671Z,5.30
2018-09-05T03:01:50.113Z,5.43
2018-09-05T03:04:18.493Z,5.73
2018-09-05T03:06:46.904Z,5.33
2018-09-05T03:09:15.344Z,5.13
2018-09-05T03:11:43.829Z,5.40
2018-09-05T03:14:12.212Z,5.13
2018-09-05T03:16:40.629Z,4.70
2018-09-05T03:19:09.002Z,4.73
2018-09-05T03:21:37.417Z,5.47
2018-09-05T03:24:05.892Z,5.10
2018-09-05T03:26:34.296Z,5.00
2018-09-05T03:29:02.664Z,5.40
2018-09-05T03:31:31.086Z,5.20
2018-09-05T03:33:59.453Z,5.03
2018-09-05T03:36:27.873Z,5.37
2018-09-05T03:38:56.246Z,4.93
2018-09-05T03:41:24.657Z,5.07
2018-09-05T03:43:53.069Z,5.43
2018-09-05T03:46:21.502Z,5.20
2018-09-05T03:48:49.901Z,5.23
2018-09-05T03:51:18.330Z,4.40
2018-09-05T03:53:46.745Z,4.43
2018-09-05T03:56:15.122Z,5.00
2018-09-05T03:58:43.564Z,4.43
2018-09-05T04:01:11.970Z,5.07
2018-09-05T04:03:40.368Z,4.93
2018-09-05T04:06:08.749Z,5.27
2018-09-05T04:08:37.166Z,4.53
2018-09-05T04:11:05.610Z,5.23
2018-09-05T04:13:34.021Z,5.00
2018-09-05T04:16:02.390Z,5.60
2018-09-05T04:18:30.809Z,4.77
2018-09-05T04:20:59.168Z,5.17
2018-09-05T04:23:31.937Z,4.93
2018-09-05T04:26:00.732Z,4.90
2018-09-05T04:28:29.137Z,5.37
2018-09-05T04:30:57.563Z,4.93
2018-09-05T04:33:25.962Z,5.63
2018-09-05T04:35:54.340Z,4.80
2018-09-05T04:38:22.748Z,5.10
2018-09-05T04:40:51.121Z,5.50
2018-09-05T04:43:19.541Z,5.30
2018-09-05T04:45:47.912Z,5.93
2018-09-05T04:48:16.336Z,4.90
2018-09-05T04:50:44.773Z,5.33
2018-09-05T04:53:13.200Z,4.90
2018-09-05T04:55:41.608Z,5.40
2018-09-05T04:58:09.996Z,5.63
2018-09-05T05:00:38.398Z,5.33
2018-09-05T05:03:06.814Z,5.90
2018-09-05T05:05:35.284Z,5.40
2018-09-05T05:08:03.629Z,5.87
2018-09-05T05:10:32.046Z,4.73
2018-09-05T05:13:00.421Z,4.90
2018-09-05T05:15:28.853Z,4.50
2018-09-05T05:17:57.209Z,5.00
2018-09-05T05:20:25.662Z,9.00
2018-09-05T05:22:54.060Z,6.50
2018-09-05T05:25:23.000Z,5.07
2018-09-05T05:27:51.409Z,4.93
2018-09-05T05:30:19.812Z,5.30
2018-09-05T05:32:48.412Z,6.10
2018-09-05T05:35:16.708Z,5.13
2018-09-05T05:37:45.130Z,5.10
2018-09-05T05:40:13.593Z,5.80
2018-09-05T05:42:41.985Z,4.87
2018-09-05T05:45:10.392Z,5.27
2018-09-05T05:47:38.861Z,5.73
2018-09-05T05:50:07.254Z,5.43
2018-09-05T05:52:35.672Z,5.60
2018-09-05T05:55:04.105Z,5.77
2018-09-05T05:57:32.558Z,5.80
2018-09-05T06:00:00.949Z,6.27
2018-09-05T06:02:29.381Z,5.73
2018-09-05T06:04:57.798Z,5.27
2018-09-05T06:07:26.245Z,5.57
2018-09-05T06:09:54.634Z,5.97
2018-09-05T06:12:23.058Z,6.20
2018-09-05T06:14:51.437Z,6.27
2018-09-05T06:17:19.916Z,5.57
2018-09-05T06:19:48.290Z,6.37
2018-09-05T06:22:16.782Z,6.07
2018-09-05T06:24:45.677Z,6.33
2018-09-05T06:27:14.997Z,6.30
2018-09-05T06:29:43.368Z,6.90
2018-09-05T06:32:11.756Z,6.90
2018-09-05T06:34:40.741Z,6.53
2018-09-05T06:37:09.109Z,6.67
2018-09-05T06:39:37.530Z,6.90
2018-09-05T06:42:06.021Z,7.67
2018-09-05T06:44:34.565Z,7.00
2018-09-05T06:47:02.949Z,7.00
2018-09-05T06:49:31.402Z,7.13
2018-09-05T06:51:59.802Z,7.37
2018-09-05T06:54:28.203Z,6.60
2018-09-05T06:56:56.581Z,7.03
2018-09-05T06:59:25.101Z,6.77
2018-09-05T07:01:53.473Z,7.30
2018-09-05T07:04:21.885Z,6.97
2018-09-05T07:06:50.290Z,6.33
2018-09-05T07:09:18.713Z,6.33
2018-09-05T07:11:47.137Z,6.53
2018-09-05T07:14:15.611Z,6.60
2018-09-05T07:16:43.955Z,6.53
2018-09-05T07:19:13.053Z,6.57
2018-09-05T07:21:41.490Z,6.23
2018-09-05T07:24:09.874Z,7.37
2018-09-05T07:26:38.589Z,7.10
2018-09-05T07:29:07.196Z,7.20
2018-09-05T07:31:35.793Z,7.40
2018-09-05T07:34:04.180Z,6.80
2018-09-05T07:36:32.618Z,7.30
2018-09-05T07:39:01.249Z,7.10
2018-09-05T07:41:29.733Z,6.67
2018-09-05T07:43:58.150Z,7.53
2018-09-05T07:46:26.573Z,7.73
2018-09-05T07:48:55.025Z,9.80
2018-09-05T07:51:23.420Z,9.17
2018-09-05T07:53:51.814Z,10.93
2018-09-05T07:56:20.285Z,7.83
2018-09-05T07:58:48.701Z,6.07
2018-09-05T08:01:17.113Z,6.10
2018-09-05T08:03:45.507Z,6.43
2018-09-05T08:06:13.906Z,6.50
2018-09-05T08:08:42.351Z,6.20
2018-09-05T08:11:10.776Z,5.43
2018-09-05T08:13:39.169Z,6.20
2018-09-05T08:16:07.877Z,6.43
2018-09-05T08:18:36.258Z,6.20
2018-09-05T08:21:04.655Z,6.10
2018-09-05T08:23:33.090Z,5.53
2018-09-05T08:26:01.484Z,5.05
2018-09-05T08:28:29.922Z,5.62
2018-09-05T08:30:58.280Z,4.90
2018-09-05T08:33:26.688Z,5.50
2018-09-05T08:35:55.378Z,5.12
2018-09-05T08:38:23.611Z,5.50
2018-09-05T08:40:52.018Z,5.93
2018-09-05T08:43:20.491Z,5.87
2018-09-05T08:45:49.260Z,8.15
2018-09-05T08:48:17.383Z,8.83
2018-09-05T08:50:45.692Z,6.97
2018-09-05T08:53:14.114Z,6.97
2018-09-05T08:55:42.508Z,7.08
2018-09-05T08:58:10.930Z,6.92
2018-09-05T09:00:39.305Z,6.97
2018-09-05T09:03:07.766Z,7.72
2018-09-05T09:05:36.157Z,7.60
2018-09-05T09:08:04.615Z,8.70
2018-09-05T09:10:33.001Z,6.75
2018-09-05T09:13:01.352Z,6.92
2018-09-05T09:15:29.777Z,7.75
2018-09-05T09:17:58.166Z,8.18
2018-09-05T09:20:26.593Z,8.05
2018-09-05T09:22:54.989Z,7.80
2018-09-05T09:25:23.392Z,8.18
2018-09-05T09:27:51.809Z,8.13
2018-09-05T09:30:20.221Z,8.35
2018-09-05T09:32:48.597Z,9.10
2018-09-05T09:35:17.049Z,8.90
2018-09-05T09:37:45.401Z,8.00
2018-09-05T09:40:14.688Z,8.88
2018-09-05T09:42:43.093Z,10.20
2018-09-05T09:45:11.509Z,9.38
2018-09-05T09:47:39.885Z,9.83
2018-09-05T09:50:08.925Z,9.40
2018-09-05T09:52:38.674Z,8.93
2018-09-05T09:55:13.566Z,9.55
2018-09-05T09:57:41.960Z,10.15
2018-09-05T10:00:12.092Z,10.30
2018-09-05T10:03:47.601Z,11.28
2018-09-05T10:06:25.966Z,9.33
2018-09-05T10:08:59.837Z,9.20
2018-09-05T10:11:33.461Z,9.43
2018-09-05T10:14:07.240Z,10.90
2018-09-05T10:16:44.712Z,9.48
2018-09-05T10:19:13.521Z,9.30
2018-09-05T10:21:41.949Z,10.38
2018-09-05T10:24:10.321Z,9.18
2018-09-05T10:26:38.738Z,10.70
2018-09-05T10:29:07.108Z,9.88
2018-09-05T10:31:35.570Z,10.18
2018-09-05T10:34:03.990Z,9.20
2018-09-05T10:36:32.460Z,9.90
2018-09-05T10:39:00.870Z,9.98
2018-09-05T10:41:29.236Z,9.68
2018-09-05T10:43:57.671Z,10.08
2018-09-05T10:46:26.057Z,9.53
2018-09-05T10:48:54.503Z,9.98
2018-09-05T10:51:28.930Z,10.45
2018-09-05T10:53:57.330Z,10.30
2018-09-05T10:56:25.697Z,10.03
2018-09-05T10:58:54.120Z,10.65
2018-09-05T11:01:22.549Z,11.00
2018-09-05T11:03:50.977Z,10.85
2018-09-05T11:06:19.369Z,10.68
2018-09-05T11:08:47.815Z,10.55
2018-09-05T11:11:16.212Z,10.85
2018-09-05T11:13:44.644Z,10.80
2018-09-05T11:16:13.057Z,11.18
2018-09-05T11:18:41.426Z,11.25
2018-09-05T11:21:09.876Z,11.90
2018-09-05T11:23:38.257Z,11.08
2018-09-05T11:26:06.680Z,11.73
2018-09-05T11:28:35.109Z,11.65
2018-09-05T11:31:03.513Z,12.15
2018-09-05T11:33:31.908Z,11.35
2018-09-05T11:36:00.324Z,11.60
2018-09-05T11:38:28.710Z,12.73
2018-09-05T11:40:57.165Z,13.03
2018-09-05T11:43:25.624Z,11.78
2018-09-05T11:45:54.029Z,12.13
2018-09-05T11:48:22.428Z,13.58
2018-09-05T11:50:50.964Z,13.65
2018-09-05T11:53:19.352Z,13.28
2018-09-05T11:55:47.728Z,13.43
2018-09-05T11:58:16.136Z,13.53
2018-09-05T12:00:44.510Z,12.90
2018-09-05T12:03:12.921Z,13.38
2018-09-05T12:05:41.293Z,14.95
2018-09-05T12:08:09.721Z,13.28
2018-09-05T12:10:38.116Z,13.30
2018-09-05T12:13:06.553Z,13.83
2018-09-05T12:15:34.940Z,13.83
2018-09-05T12:18:03.344Z,13.75
2018-09-05T12:20:31.755Z,15.05
2018-09-05T12:23:00.179Z,13.60
2018-09-05T12:25:28.598Z,13.78
2018-09-05T12:27:57.007Z,14.35
2018-09-05T12:30:31.677Z,13.85
2018-09-05T12:33:00.133Z,14.15
2018-09-05T12:35:28.505Z,14.23
2018-09-05T12:37:57.241Z,13.32
2018-09-05T12:40:53.805Z,13.40
2018-09-05T12:43:22.666Z,13.05
2018-09-05T12:45:51.048Z,12.60
2018-09-05T12:48:19.489Z,14.33
2018-09-05T12:50:47.880Z,13.55
2018-09-05T12:53:16.296Z,13.72
2018-09-05T12:55:44.699Z,14.13
2018-09-05T12:58:13.221Z,13.35
2018-09-05T13:00:41.685Z,14.07
2018-09-05T13:03:10.073Z,13.70
2018-09-05T13:05:38.527Z,13.28
2018-09-05T13:08:06.874Z,14.63
2018-09-05T13:10:35.293Z,13.68
2018-09-05T13:13:03.686Z,14.93
2018-09-05T13:15:32.137Z,13.50
2018-09-05T13:18:00.509Z,13.20
2018-09-05T13:20:28.933Z,13.90
2018-09-05T13:22:57.317Z,12.60
2018-09-05T13:25:25.759Z,13.38
2018-09-05T13:27:54.122Z,13.75
2018-09-05T13:30:22.532Z,14.30
2018-09-05T13:32:50.925Z,13.68
2018-09-05T13:35:19.401Z,13.62
2018-09-05T13:37:47.765Z,13.13
2018-09-05T13:40:16.173Z,13.10
2018-09-05T13:42:44.549Z,14.53
2018-09-05T13:45:13.232Z,14.43
2018-09-05T13:47:41.630Z,14.43
2018-09-05T13:50:10.043Z,15.00
2018-09-05T13:52:38.445Z,14.13
2018-09-05T13:55:06.889Z,14.40
2018-09-05T13:57:35.317Z,13.45
2018-09-05T14:00:03.761Z,14.60
2018-09-05T14:02:32.156Z,14.07
2018-09-05T14:05:00.541Z,13.90
2018-09-05T14:07:28.962Z,14.85
2018-09-05T14:09:57.353Z,14.83
2018-09-05T14:12:25.761Z,14.47
2018-09-05T14:14:54.154Z,15.58
2018-09-05T14:17:22.566Z,15.10
2018-09-05T14:19:50.952Z,15.93
2018-09-05T14:22:19.362Z,14.23
2018-09-05T14:24:54.041Z,14.63
2018-09-05T14:27:22.490Z,15.10
2018-09-05T14:29:50.876Z,14.45
2018-09-05T14:32:19.260Z,15.20
2018-09-05T14:34:47.675Z,14.75
2018-09-05T14:37:16.060Z,15.43
2018-09-05T14:42:18.197Z,16.37
2018-09-05T14:44:46.605Z,16.02
2018-09-05T14:47:14.985Z,16.27
2018-09-05T14:49:43.426Z,16.00
2018-09-05T14:52:11.813Z,15.60
2018-09-05T14:54:40.241Z,16.70
2018-09-05T14:57:08.657Z,15.00
2018-09-05T14:59:37.098Z,15.98
2018-09-05T15:02:05.493Z,15.93
2018-09-05T15:04:33.916Z,16.20
2018-09-05T15:07:02.311Z,17.07
2018-09-05T15:09:30.741Z,16.12
2018-09-05T15:11:59.222Z,16.87
2018-09-05T15:14:27.585Z,16.35
2018-09-05T15:16:56.009Z,16.48
2018-09-05T15:19:24.389Z,17.12
2018-09-05T15:21:52.796Z,16.27
2018-09-05T15:24:21.173Z,16.87
2018-09-05T15:26:49.588Z,17.70
2018-09-05T15:29:17.969Z,18.27
2018-09-05T15:31:46.397Z,17.10
2018-09-05T15:34:14.785Z,18.05
2018-09-05T15:36:43.220Z,17.00
2018-09-05T15:39:12.047Z,16.40
2018-09-05T15:41:40.788Z,16.27
2018-09-05T15:44:09.555Z,17.20
2018-09-05T15:46:37.975Z,17.50
2018-09-05T15:49:07.601Z,18.15
2018-09-05T15:51:36.016Z,20.15
2018-09-05T15:54:04.556Z,19.23
2018-09-05T15:56:33.164Z,20.08
2018-09-05T15:59:01.532Z,19.02
2018-09-05T16:01:29.949Z,20.15
2018-09-05T16:03:58.493Z,20.23
2018-09-05T16:06:26.925Z,20.55
2018-09-05T16:08:55.313Z,19.92
2018-09-05T16:11:23.747Z,20.15
2018-09-05T16:13:52.384Z,19.25
2018-09-05T16:16:20.867Z,19.70
2018-09-05T16:18:49.922Z,19.10
2018-09-05T16:21:18.289Z,21.33
2018-09-05T16:23:46.697Z,21.30
2018-09-05T16:26:15.129Z,22.02
2018-09-05T16:28:43.543Z,20.72
2018-09-05T16:31:11.926Z,20.52
2018-09-05T16:33:40.346Z,19.62
2018-09-05T16:36:08.784Z,20.52
2018-09-05T16:38:37.206Z,20.85
2018-09-05T16:41:05.621Z,21.40
2018-09-05T16:43:34.061Z,21.35
2018-09-05T16:46:02.517Z,22.35
2018-09-05T16:48:30.997Z,22.62
2018-09-05T16:50:59.377Z,23.02
2018-09-05T16:53:27.885Z,22.15
2018-09-05T16:55:56.291Z,21.40
2018-09-05T16:58:24.712Z,21.65
2018-09-05T17:00:53.193Z,21.85
2018-09-05T17:03:21.597Z,22.07
2018-09-05T17:05:49.973Z,23.10
2018-09-05T17:08:18.697Z,21.33
2018-09-05T17:10:47.126Z,23.22
2018-09-05T17:13:15.525Z,23.73
2018-09-05T17:15:43.969Z,21.75
2018-09-05T17:18:12.369Z,21.65
2018-09-05T17:20:40.832Z,22.60
2018-09-05T17:23:09.277Z,23.40
2018-09-05T17:25:37.689Z,22.13
2018-09-05T17:28:06.096Z,22.00
2018-09-05T17:30:34.525Z,22.05
2018-09-05T17:33:02.888Z,22.22
2018-09-05T17:35:31.365Z,22.77
2018-09-05T17:37:59.710Z,22.13
2018-09-05T17:40:28.125Z,22.67
2018-09-05T17:42:56.572Z,23.75
2018-09-05T17:45:24.982Z,23.27
2018-09-05T17:47:53.365Z,25.00
2018-09-05T17:50:21.838Z,23.47
2018-09-05T17:52:50.228Z,24.02
2018-09-05T17:55:18.690Z,24.05
2018-09-05T17:57:47.085Z,24.60
2018-09-05T18:00:15.578Z,24.77
2018-09-05T18:02:43.957Z,22.80
2018-09-05T18:05:12.361Z,23.75
2018-09-05T18:07:40.760Z,24.20
2018-09-05T18:10:09.333Z,25.00
2018-09-05T18:12:37.745Z,26.42
2018-09-05T18:15:06.249Z,27.07
2018-09-05T18:17:34.671Z,28.00
2018-09-05T18:20:03.134Z,27.50
2018-09-05T18:22:31.675Z,25.02
2018-09-05T18:25:00.053Z,25.97
2018-09-05T18:27:28.515Z,25.52
2018-09-05T18:29:56.961Z,25.10
2018-09-05T18:32:25.739Z,25.25
2018-09-05T18:34:54.360Z,25.48
2018-09-05T18:37:23.458Z,23.22
2018-09-05T18:39:51.861Z,24.82
2018-09-05T18:42:20.631Z,23.90
2018-09-05T18:44:49.074Z,23.57
2018-09-05T18:47:17.895Z,25.97
2018-09-05T18:49:46.397Z,26.52
2018-09-05T18:52:14.893Z,25.37
2018-09-05T18:54:43.314Z,26.35
2018-09-05T18:57:11.772Z,26.73
2018-09-05T18:59:40.494Z,26.35
2018-09-05T19:02:08.937Z,27.40
2018-09-05T19:04:37.564Z,27.30
2018-09-05T19:07:06.402Z,26.95
2018-09-05T19:09:35.561Z,27.70
2018-09-05T19:12:03.983Z,27.30
2018-09-05T19:14:32.409Z,27.48
2018-09-05T19:17:00.827Z,27.73
2018-09-05T19:19:29.391Z,27.87
2018-09-05T19:21:57.786Z,27.70
2018-09-05T19:24:26.458Z,27.07
2018-09-05T19:26:54.872Z,27.35
2018-09-05T19:29:23.277Z,26.82
2018-09-05T19:31:51.660Z,28.62
2018-09-05T19:34:20.113Z,28.12
2018-09-05T19:36:48.510Z,28.12
2018-09-05T19:41:50.933Z,28.85
2018-09-05T19:44:19.409Z,30.50
2018-09-05T19:46:47.819Z,30.20
2018-09-05T19:49:16.331Z,30.75
2018-09-05T19:51:44.678Z,29.15
2018-09-05T19:54:13.073Z,29.60
2018-09-05T19:56:41.481Z,30.88
2018-09-05T19:59:09.942Z,29.90
2018-09-05T20:01:38.364Z,30.80
2018-09-05T20:04:06.813Z,31.93
2018-09-05T20:06:35.224Z,31.40
2018-09-05T20:09:04.593Z,32.78
2018-09-05T20:11:33.013Z,32.03
2018-09-05T20:14:01.386Z,33.45
2018-09-05T20:16:29.853Z,33.75
2018-09-05T20:18:58.288Z,32.25
2018-09-05T20:21:26.712Z,32.40
2018-09-05T20:23:55.110Z,33.60
2018-09-05T20:26:23.526Z,34.03
2018-09-05T20:28:51.989Z,32.00
2018-09-05T20:31:20.394Z,34.27
2018-09-05T20:33:48.813Z,32.78
2018-09-05T20:36:17.217Z,32.95
2018-09-05T20:38:45.608Z,33.90
2018-09-05T20:41:14.088Z,34.70
2018-09-05T20:43:42.551Z,32.58
2018-09-05T20:48:44.788Z,32.38
2018-09-05T20:51:13.172Z,34.80
2018-09-05T20:53:41.808Z,34.27
2018-09-05T20:56:10.236Z,33.48
2018-09-05T20:58:38.759Z,34.37
2018-09-05T21:01:07.145Z,37.85
2018-09-05T21:03:35.589Z,35.68
2018-09-05T21:06:04.098Z,34.27
2018-09-05T21:08:32.547Z,33.33
2018-09-05T21:11:00.905Z,34.43
2018-09-05T21:13:29.385Z,36.20
2018-09-05T21:16:04.560Z,33.70
2018-09-05T21:18:33.439Z,35.00
2018-09-05T21:21:01.800Z,36.10
2018-09-05T21:23:31.575Z,34.87
2018-09-05T21:26:00.201Z,35.07
2018-09-05T21:28:28.597Z,33.60
2018-09-05T21:30:57.037Z,35.40
2018-09-05T21:33:25.956Z,35.60
2018-09-05T21:35:54.500Z,39.10
2018-09-05T21:38:22.915Z,38.93
2018-09-05T21:40:51.338Z,35.93
2018-09-05T21:43:19.713Z,35.00
2018-09-05T21:45:48.161Z,34.73
2018-09-05T21:48:16.573Z,35.97
2018-09-05T21:50:46.813Z,37.13
2018-09-05T21:53:15.177Z,36.13
2018-09-05T21:55:43.632Z,36.33
2018-09-05T21:58:12.048Z,36.93
2018-09-05T22:00:40.501Z,35.63
2018-09-05T22:03:09.018Z,36.30
2018-09-05T22:05:37.402Z,35.80
2018-09-05T22:08:06.064Z,37.20
2018-09-05T22:10:34.445Z,36.43
2018-09-05T22:13:02.904Z,37.07
2018-09-05T22:15:41.221Z,36.23
2018-09-05T22:18:09.622Z,37.53
2018-09-05T22:20:38.365Z,36.67
2018-09-05T22:23:06.840Z,37.33
2018-09-05T22:25:35.276Z,35.67
2018-09-05T22:28:03.737Z,35.37
2018-09-05T22:30:33.305Z,37.77
2018-09-05T22:33:02.436Z,37.53
2018-09-05T22:35:30.808Z,37.27
2018-09-05T22:37:59.499Z,36.47
2018-09-05T22:40:30.437Z,35.87
2018-09-05T22:43:10.736Z,36.63
2018-09-05T22:45:50.360Z,36.47
2018-09-05T22:48:35.368Z,36.97
2018-09-05T22:51:22.408Z,36.27
2018-09-05T22:54:11.522Z,35.50
2018-09-05T22:57:02.355Z,35.00
2018-09-05T23:00:20.122Z,36.33
2018-09-05T23:04:01.550Z,34.33
2018-09-05T23:08:45.466Z,34.60
2018-09-05T23:11:54.394Z,35.03
2018-09-05T23:14:38.838Z,34.17
2018-09-05T23:17:19.036Z,32.10
2018-09-05T23:19:58.358Z,32.43
2018-09-05T23:22:36.854Z,33.20
2018-09-05T23:25:05.265Z,32.50
2018-09-05T23:27:33.706Z,32.63
2018-09-05T23:30:02.116Z,33.37
2018-09-05T23:32:30.546Z,33.63
2018-09-05T23:34:58.929Z,33.37
2018-09-05T23:37:27.359Z,34.40
2018-09-05T23:39:55.782Z,33.20
2018-09-05T23:42:24.198Z,32.80
2018-09-05T23:44:52.614Z,32.73
2018-09-05T23:47:21.066Z,31.17
2018-09-05T23:49:49.510Z,31.97
2018-09-05T23:52:17.926Z,31.33
2018-09-05T23:54:46.365Z,31.23
2018-09-05T23:57:14.770Z,31.50
2018-09-05T23:59:43.215Z,30.70
